createdAt,value
2022-11-15T00:01:58.104Z,66.64
2022-11-15T00:04:44.210Z,67.35
2022-11-15T00:07:54.190Z,67.47
2022-11-15T00:10:37.985Z,67.20
2022-11-15T00:13:27.755Z,67.09
2022-11-15T00:16:13.917Z,67.55
2022-11-15T00:19:00.023Z,67.08
2022-11-15T00:21:46.052Z,66.25
2022-11-15T00:24:32.299Z,66.28
2022-11-15T00:27:18.343Z,67.08
2022-11-15T00:30:04.975Z,67.44
2022-11-15T00:32:51.415Z,67.67
2022-11-15T00:35:37.449Z,66.28
2022-11-15T00:38:24.097Z,66.97
2022-11-15T00:41:10.470Z,67.27
2022-11-15T00:43:56.498Z,66.74
2022-11-15T00:46:42.681Z,66.97
2022-11-15T00:49:28.922Z,67.20
2022-11-15T00:52:14.990Z,66.62
2022-11-15T00:55:01.208Z,67.34
2022-11-15T00:57:47.553Z,67.30
2022-11-15T01:00:33.646Z,67.32
2022-11-15T01:03:19.941Z,66.89
2022-11-15T01:06:06.840Z,67.53
2022-11-15T01:08:54.921Z,65.16
2022-11-15T01:11:41.240Z,64.89
2022-11-15T01:14:27.459Z,64.94
2022-11-15T01:17:13.677Z,64.94
2022-11-15T01:19:59.952Z,66.99
2022-11-15T01:22:46.017Z,65.20
2022-11-15T01:25:32.117Z,65.34
2022-11-15T01:28:18.512Z,65.41
2022-11-15T01:31:11.465Z,66.72
2022-11-15T01:33:57.489Z,66.43
2022-11-15T01:36:43.760Z,66.93
2022-11-15T01:39:29.880Z,66.79
2022-11-15T01:42:16.402Z,66.76
2022-11-15T01:45:07.067Z,66.79
2022-11-15T01:47:54.367Z,66.28
2022-11-15T01:50:40.416Z,66.37
2022-11-15T01:53:27.245Z,67.27
2022-11-15T01:56:16.248Z,68.28
2022-11-15T01:59:04.744Z,67.68
2022-11-15T02:01:51.279Z,66.65
2022-11-15T02:04:42.541Z,67.58
2022-11-15T02:07:29.716Z,67.31
2022-11-15T02:10:23.849Z,65.15
2022-11-15T02:13:10.035Z,65.53
2022-11-15T02:16:24.711Z,67.11
2022-11-15T02:19:33.960Z,67.64
2022-11-15T02:22:52.197Z,67.14
2022-11-15T02:25:48.622Z,67.26
2022-11-15T02:28:34.677Z,66.60
2022-11-15T02:31:29.775Z,67.55
2022-11-15T02:34:26.318Z,66.49
2022-11-15T02:37:27.478Z,65.76
2022-11-15T02:40:31.893Z,65.08
2022-11-15T02:43:45.177Z,65.13
2022-11-15T02:46:52.935Z,65.44
2022-11-15T02:49:39.102Z,66.50
2022-11-15T02:52:29.004Z,67.25
2022-11-15T02:55:33.259Z,65.97
2022-11-15T02:59:17.140Z,67.01
2022-11-15T03:02:18.283Z,67.11
2022-11-15T03:05:42.873Z,66.63
2022-11-15T03:08:46.989Z,67.72
2022-11-15T03:11:39.977Z,67.26
2022-11-15T03:14:26.984Z,67.59
2022-11-15T03:17:19.056Z,66.80
2022-11-15T03:20:07.511Z,66.39
2022-11-15T03:22:55.349Z,66.89
2022-11-15T03:25:52.509Z,67.23
2022-11-15T03:29:02.309Z,67.04
2022-11-15T03:31:53.539Z,66.68
2022-11-15T03:34:49.368Z,66.93
2022-11-15T03:37:41.948Z,67.14
2022-11-15T03:40:38.768Z,66.98
2022-11-15T03:43:54.241Z,67.09
2022-11-15T03:46:47.622Z,67.43
2022-11-15T03:49:35.897Z,67.10
2022-11-15T03:52:23.325Z,65.95
2022-11-15T03:55:12.807Z,67.49
2022-11-15T03:58:01.023Z,68.30
2022-11-15T04:00:47.248Z,67.88
2022-11-15T04:03:33.752Z,65.60
2022-11-15T04:06:20.032Z,65.87
2022-11-15T04:09:06.105Z,67.29
2022-11-15T04:11:52.363Z,66.99
2022-11-15T04:14:58.704Z,67.47
2022-11-15T04:17:47.679Z,67.20
2022-11-15T04:20:52.297Z,67.02
2022-11-15T04:24:07.483Z,67.54
2022-11-15T04:26:53.848Z,66.73
2022-11-15T04:29:40.203Z,66.99
2022-11-15T04:32:26.686Z,66.95
2022-11-15T04:35:13.096Z,64.78
2022-11-15T04:37:59.553Z,64.08
2022-11-15T04:40:45.423Z,65.55
2022-11-15T04:43:32.217Z,66.91
2022-11-15T04:46:24.840Z,67.25
2022-11-15T04:49:10.878Z,67.95
2022-11-15T04:51:57.263Z,67.32
2022-11-15T04:54:43.986Z,67.06
2022-11-15T04:57:30.167Z,66.70
2022-11-15T05:00:17.863Z,66.87
2022-11-15T05:03:22.578Z,66.77
2022-11-15T05:06:08.942Z,66.22
2022-11-15T05:08:55.463Z,66.00
2022-11-15T05:11:42.090Z,66.86
2022-11-15T05:14:27.987Z,66.58
2022-11-15T05:17:14.163Z,65.11
2022-11-15T05:20:00.210Z,64.97
2022-11-15T05:22:46.358Z,65.41
2022-11-15T05:25:32.603Z,65.82
2022-11-15T05:28:19.192Z,66.02
2022-11-15T05:31:07.416Z,65.49
2022-11-15T05:33:54.953Z,65.64
2022-11-15T05:36:44.543Z,66.30
2022-11-15T05:39:30.510Z,66.54
2022-11-15T05:42:17.102Z,66.70
2022-11-15T05:45:06.840Z,66.38
2022-11-15T05:47:53.252Z,66.41
2022-11-15T05:50:40.806Z,65.97
2022-11-15T05:53:27.130Z,66.06
2022-11-15T05:56:13.355Z,66.23
2022-11-15T05:59:00.164Z,66.43
2022-11-15T06:01:46.284Z,66.20
2022-11-15T06:04:32.818Z,66.30
2022-11-15T06:07:19.007Z,66.66
2022-11-15T06:10:05.688Z,67.05
2022-11-15T06:13:02.301Z,66.51
2022-11-15T06:15:48.924Z,66.75
2022-11-15T06:18:36.010Z,66.70
2022-11-15T06:21:22.429Z,66.24
2022-11-15T06:24:08.525Z,66.29
2022-11-15T06:26:54.395Z,66.55
2022-11-15T06:29:40.606Z,66.47
2022-11-15T06:32:26.931Z,65.98
2022-11-15T06:35:14.136Z,66.16
2022-11-15T06:38:08.998Z,66.27
2022-11-15T06:40:55.295Z,65.96
2022-11-15T06:43:42.008Z,66.79
2022-11-15T06:46:28.121Z,66.59
2022-11-15T06:49:14.169Z,66.15
2022-11-15T06:52:00.339Z,66.19
2022-11-15T06:54:46.655Z,66.93
2022-11-15T06:57:33.364Z,66.99
2022-11-15T07:00:23.307Z,66.67
2022-11-15T07:03:09.778Z,65.93
2022-11-15T07:05:58.500Z,66.15
2022-11-15T07:08:47.568Z,67.18
2022-11-15T07:11:34.317Z,66.51
2022-11-15T07:14:20.082Z,66.08
2022-11-15T07:17:06.314Z,67.13
2022-11-15T07:19:52.476Z,66.48
2022-11-15T07:22:38.639Z,66.92
2022-11-15T07:25:24.778Z,67.15
2022-11-15T07:28:10.996Z,66.43
2022-11-15T07:30:57.466Z,66.48
2022-11-15T07:33:43.569Z,65.48
2022-11-15T07:36:29.857Z,64.87
2022-11-15T07:39:15.981Z,65.51
2022-11-15T07:42:20.915Z,65.94
2022-11-15T07:45:07.310Z,65.71
2022-11-15T07:47:54.110Z,66.41
2022-11-15T07:50:44.103Z,66.99
2022-11-15T07:53:30.752Z,64.62
2022-11-15T07:56:17.150Z,66.12
2022-11-15T07:59:03.108Z,65.97
2022-11-15T08:01:49.595Z,64.94
2022-11-15T08:04:35.621Z,65.10
2022-11-15T08:07:21.993Z,65.23
2022-11-15T08:10:09.063Z,66.92
2022-11-15T08:13:25.678Z,66.85
2022-11-15T08:16:13.067Z,66.27
2022-11-15T08:18:59.672Z,65.80
2022-11-15T08:21:47.802Z,65.44
2022-11-15T08:24:53.680Z,66.20
2022-11-15T08:28:03.151Z,65.59
2022-11-15T08:31:00.723Z,67.40
2022-11-15T08:34:05.147Z,66.82
2022-11-15T08:36:51.622Z,68.00
2022-11-15T08:39:37.556Z,67.99
2022-11-15T08:42:24.013Z,66.35
2022-11-15T08:45:10.415Z,68.25
2022-11-15T08:47:57.134Z,69.32
2022-11-15T08:50:44.742Z,69.57
2022-11-15T08:53:30.658Z,69.62
2022-11-15T08:56:16.945Z,69.30
2022-11-15T08:59:03.199Z,69.73
2022-11-15T09:01:49.433Z,70.19
2022-11-15T09:04:37.298Z,70.12
2022-11-15T09:07:23.631Z,70.25
2022-11-15T09:10:09.840Z,69.81
2022-11-15T09:12:58.150Z,69.81
2022-11-15T09:15:44.356Z,68.49
2022-11-15T09:18:30.894Z,69.26
2022-11-15T09:21:17.264Z,67.59
2022-11-15T09:24:05.312Z,66.64
2022-11-15T09:29:56.639Z,67.54
2022-11-15T09:32:43.974Z,67.20
2022-11-15T09:35:42.008Z,67.19
2022-11-15T09:38:40.031Z,66.55
2022-11-15T09:42:07.073Z,67.15
2022-11-15T09:44:58.256Z,67.30
2022-11-15T09:48:05.110Z,68.28
2022-11-15T09:50:50.209Z,67.64
2022-11-15T09:53:50.833Z,68.21
2022-11-15T09:56:21.919Z,67.81
2022-11-15T09:59:04.999Z,65.70
2022-11-15T10:02:05.126Z,66.33
2022-11-15T10:04:32.991Z,66.85
2022-11-15T10:07:25.449Z,67.26
2022-11-15T10:10:09.501Z,66.25
2022-11-15T10:12:37.128Z,66.76
2022-11-15T10:15:12.669Z,66.48
2022-11-15T10:18:16.288Z,67.42
2022-11-15T10:20:53.725Z,67.29
2022-11-15T10:23:23.966Z,67.40
2022-11-15T10:25:59.151Z,66.81
2022-11-15T10:28:32.037Z,65.81
2022-11-15T10:31:02.170Z,66.01
2022-11-15T10:33:35.037Z,66.46
2022-11-15T10:36:59.199Z,67.05
2022-11-15T10:42:27.647Z,66.53
2022-11-15T10:44:55.526Z,66.71
2022-11-15T10:47:29.801Z,67.47
2022-11-15T10:50:07.452Z,66.08
2022-11-15T10:56:58.336Z,67.05
2022-11-15T10:59:56.779Z,66.73
2022-11-15T11:02:39.320Z,66.63
2022-11-15T11:05:41.053Z,66.51
2022-11-15T11:08:14.051Z,66.41
2022-11-15T11:11:01.993Z,66.24
2022-11-15T11:13:38.063Z,65.83
2022-11-15T11:16:14.907Z,66.94
2022-11-15T11:19:13.666Z,66.95
2022-11-15T11:22:12.378Z,68.75
2022-11-15T11:24:39.990Z,67.53
2022-11-15T11:27:26.250Z,67.41
2022-11-15T11:30:08.440Z,67.65
2022-11-15T11:32:55.635Z,68.09
2022-11-15T11:35:37.802Z,67.92
2022-11-15T11:38:44.847Z,68.52
2022-11-15T11:41:30.401Z,67.18
2022-11-15T11:44:33.805Z,67.62
2022-11-15T11:47:22.314Z,67.22
2022-11-15T11:50:23.058Z,66.93
2022-11-15T11:53:13.244Z,66.56
2022-11-15T11:56:08.793Z,67.81
2022-11-15T11:58:49.293Z,66.84
2022-11-15T12:01:45.311Z,66.12
2022-11-15T12:04:21.361Z,65.89
2022-11-15T12:06:54.880Z,66.64
2022-11-15T12:09:42.894Z,66.75
2022-11-15T12:12:23.293Z,66.42
2022-11-15T12:15:14.402Z,67.74
2022-11-15T12:17:42.665Z,67.67
2022-11-15T12:20:19.972Z,67.29
2022-11-15T12:23:07.267Z,67.23
2022-11-15T12:25:49.387Z,67.67
2022-11-15T12:28:45.047Z,68.53
2022-11-15T12:31:35.462Z,66.35
2022-11-15T12:34:29.482Z,67.43
2022-11-15T12:36:57.274Z,68.04
2022-11-15T12:40:04.029Z,67.63
2022-11-15T12:42:32.294Z,67.63
2022-11-15T12:45:00.417Z,66.81
2022-11-15T12:47:28.355Z,68.16
2022-11-15T12:49:56.272Z,67.94
2022-11-15T12:52:23.797Z,69.07
2022-11-15T12:54:54.358Z,69.98
2022-11-15T12:57:30.108Z,68.42
2022-11-15T13:00:02.823Z,68.31
2022-11-15T13:02:38.102Z,67.50
2022-11-15T13:05:14.542Z,69.35
2022-11-15T13:07:42.286Z,68.69
2022-11-15T13:10:12.851Z,68.65
2022-11-15T13:12:43.743Z,68.87
2022-11-15T13:15:14.505Z,68.26
2022-11-15T13:17:51.872Z,69.13
2022-11-15T13:20:28.332Z,68.82
2022-11-15T13:23:14.250Z,69.24
2022-11-15T13:25:48.916Z,69.60
2022-11-15T13:28:16.631Z,69.73
2022-11-15T13:30:53.770Z,68.83
2022-11-15T13:33:24.194Z,68.80
2022-11-15T13:35:54.762Z,67.76
2022-11-15T13:38:25.153Z,67.21
2022-11-15T13:40:53.057Z,66.98
2022-11-15T13:43:28.735Z,67.28
2022-11-15T13:46:17.854Z,69.61
2022-11-15T13:48:59.976Z,68.76
2022-11-15T13:52:02.076Z,68.36
2022-11-15T13:55:01.126Z,67.87
2022-11-15T13:57:59.665Z,68.58
2022-11-15T14:00:38.074Z,69.26
2022-11-15T14:03:26.153Z,69.52
2022-11-15T14:06:14.224Z,69.98
2022-11-15T14:09:08.571Z,69.06
2022-11-15T14:11:54.354Z,70.82
2022-11-15T14:14:23.985Z,68.52
2022-11-15T14:16:57.144Z,68.53
2022-11-15T14:19:24.928Z,69.63
2022-11-15T14:22:26.532Z,69.42
2022-11-15T14:25:20.989Z,69.67
2022-11-15T14:28:19.700Z,68.83
2022-11-15T14:30:51.227Z,69.62
2022-11-15T14:33:30.459Z,68.45
2022-11-15T14:36:54.630Z,68.90
2022-11-15T14:39:37.304Z,69.18
2022-11-15T14:42:19.660Z,70.79
2022-11-15T14:45:19.035Z,69.52
2022-11-15T14:48:01.072Z,71.66
2022-11-15T14:50:48.648Z,72.80
2022-11-15T14:53:17.682Z,70.91
2022-11-15T14:56:03.823Z,70.35
2022-11-15T14:59:08.432Z,69.54
2022-11-15T15:01:36.425Z,69.59
2022-11-15T15:04:04.061Z,69.51
2022-11-15T15:06:31.827Z,68.75
2022-11-15T15:08:59.745Z,68.39
2022-11-15T15:11:28.894Z,68.32
2022-11-15T15:14:09.699Z,67.80
2022-11-15T15:17:00.970Z,67.20
2022-11-15T15:20:15.514Z,67.53
2022-11-15T15:23:09.769Z,68.33
2022-11-15T15:25:50.197Z,68.13
2022-11-15T15:28:41.454Z,68.56
2022-11-15T15:31:20.147Z,69.11
2022-11-15T15:34:16.653Z,68.26
2022-11-15T15:36:50.225Z,68.18
2022-11-15T15:39:41.004Z,68.86
2022-11-15T15:42:21.095Z,70.00
2022-11-15T15:45:12.501Z,67.87
2022-11-15T15:47:53.179Z,69.44
2022-11-15T15:50:44.263Z,70.12
2022-11-15T15:53:16.622Z,70.15
2022-11-15T15:55:44.336Z,69.49
2022-11-15T15:58:11.766Z,68.98
2022-11-15T16:00:39.908Z,68.75
2022-11-15T16:03:07.719Z,68.91
2022-11-15T16:06:06.278Z,68.35
2022-11-15T16:09:14.135Z,70.67
2022-11-15T16:11:36.156Z,70.24
2022-11-15T16:14:27.014Z,68.83
2022-11-15T16:17:06.274Z,68.36
2022-11-15T16:19:48.388Z,68.95
2022-11-15T16:22:38.983Z,70.32
2022-11-15T16:25:06.629Z,69.36
2022-11-15T16:27:42.522Z,69.26
2022-11-15T16:30:25.471Z,69.37
2022-11-15T16:32:55.185Z,69.66
2022-11-15T16:35:23.726Z,69.37
2022-11-15T16:37:51.633Z,69.56
2022-11-15T16:40:36.310Z,69.38
2022-11-15T16:43:06.468Z,69.49
2022-11-15T16:45:35.067Z,68.07
2022-11-15T16:48:03.126Z,67.06
2022-11-15T16:50:35.097Z,66.71
2022-11-15T16:53:03.000Z,67.98
2022-11-15T16:55:32.301Z,69.61
2022-11-15T16:58:14.014Z,70.20
2022-11-15T17:05:29.531Z,68.53
2022-11-15T17:08:11.086Z,70.14
2022-11-15T17:10:52.994Z,69.55
2022-11-15T17:13:20.944Z,69.35
2022-11-15T17:15:48.350Z,68.09
2022-11-15T17:18:15.889Z,68.54
2022-11-15T17:21:09.911Z,68.71
2022-11-15T17:23:49.249Z,67.52
2022-11-15T17:26:42.890Z,67.86
2022-11-15T17:29:22.563Z,68.59
2022-11-15T17:32:23.003Z,68.84
2022-11-15T17:35:02.156Z,68.49
2022-11-15T17:37:44.056Z,68.82
2022-11-15T17:40:48.914Z,68.93
2022-11-15T17:43:16.871Z,68.93
2022-11-15T17:46:16.280Z,68.33
2022-11-15T17:48:57.056Z,67.74
2022-11-15T17:51:25.105Z,67.24
2022-11-15T17:53:53.065Z,68.11
2022-11-15T17:56:23.316Z,68.26
2022-11-15T17:58:53.671Z,69.09
2022-11-15T18:01:32.393Z,69.23
2022-11-15T18:04:02.227Z,68.40
2022-11-15T18:06:33.886Z,67.94
2022-11-15T18:09:02.521Z,68.61
2022-11-15T18:11:33.004Z,68.56
2022-11-15T18:14:02.930Z,67.77
2022-11-15T18:16:33.257Z,67.09
2022-11-15T18:19:00.913Z,66.57
2022-11-15T18:21:30.317Z,67.41
2022-11-15T18:24:00.687Z,67.85
2022-11-15T18:26:41.159Z,67.54
2022-11-15T18:29:34.694Z,67.93
2022-11-15T18:32:05.133Z,67.54
2022-11-15T18:34:56.036Z,67.93
2022-11-15T18:37:23.676Z,67.17
2022-11-15T18:40:15.152Z,67.60
2022-11-15T18:42:56.911Z,68.05
2022-11-15T18:45:25.009Z,67.90
2022-11-15T18:47:52.851Z,69.04
2022-11-15T18:50:45.032Z,69.18
2022-11-15T18:53:20.739Z,69.56
2022-11-15T18:55:48.617Z,68.54
2022-11-15T18:58:16.471Z,67.84
2022-11-15T19:00:43.964Z,68.28
2022-11-15T19:03:11.923Z,68.75
2022-11-15T19:05:39.373Z,68.68
2022-11-15T19:08:06.869Z,68.55
2022-11-15T19:10:35.927Z,69.25
2022-11-15T19:13:05.908Z,68.55
2022-11-15T19:15:36.086Z,68.21
2022-11-15T19:18:27.463Z,68.29
2022-11-15T19:21:05.744Z,68.83
2022-11-15T19:23:37.474Z,68.40
2022-11-15T19:26:31.964Z,67.67
2022-11-15T19:29:23.165Z,66.83
2022-11-15T19:32:03.603Z,68.29
2022-11-15T19:34:54.878Z,68.49
2022-11-15T19:37:44.057Z,69.52
2022-11-15T19:40:11.924Z,69.99
2022-11-15T19:42:39.864Z,69.52
2022-11-15T19:45:07.816Z,68.82
2022-11-15T19:47:35.559Z,69.76
2022-11-15T19:50:03.188Z,69.56
2022-11-15T19:52:31.026Z,69.35
2022-11-15T19:54:58.898Z,68.52
2022-11-15T19:57:26.495Z,69.62
2022-11-15T19:59:53.948Z,69.80
2022-11-15T20:02:21.895Z,69.82
2022-11-15T20:04:49.850Z,69.58
2022-11-15T20:07:17.611Z,69.81
2022-11-15T20:09:45.300Z,69.43
2022-11-15T20:12:13.131Z,68.96
2022-11-15T20:14:40.707Z,69.16
2022-11-15T20:17:08.627Z,69.58
2022-11-15T20:19:36.386Z,68.63
2022-11-15T20:22:04.052Z,68.21
2022-11-15T20:24:33.840Z,68.69
2022-11-15T20:27:01.751Z,69.20
2022-11-15T20:29:29.389Z,69.08
2022-11-15T20:31:56.762Z,69.13
2022-11-15T20:34:24.590Z,69.64
2022-11-15T20:36:52.261Z,69.62
2022-11-15T20:39:19.808Z,69.81
2022-11-15T20:41:48.195Z,69.57
2022-11-15T20:44:15.682Z,69.78
2022-11-15T20:46:43.295Z,69.33
2022-11-15T20:49:11.199Z,69.41
2022-11-15T20:51:38.816Z,69.08
2022-11-15T20:54:06.451Z,68.60
2022-11-15T20:56:34.680Z,69.17
2022-11-15T20:59:02.350Z,67.83
2022-11-15T21:01:37.825Z,68.05
2022-11-15T21:04:05.622Z,67.36
2022-11-15T21:06:36.259Z,68.41
2022-11-15T21:09:23.008Z,69.47
2022-11-15T21:12:09.525Z,68.99
2022-11-15T21:14:38.500Z,68.61
2022-11-15T21:17:06.590Z,69.36
2022-11-15T21:19:37.010Z,68.20
2022-11-15T21:22:06.256Z,68.47
2022-11-15T21:24:34.136Z,68.24
2022-11-15T21:27:16.197Z,68.19
2022-11-15T21:30:07.518Z,68.82
2022-11-15T21:32:35.809Z,69.53
2022-11-15T21:35:26.945Z,69.83
2022-11-15T21:38:09.102Z,69.50
2022-11-15T21:41:21.571Z,69.16
2022-11-15T21:44:01.430Z,68.81
2022-11-15T21:46:30.297Z,69.31
2022-11-15T21:48:58.512Z,69.62
2022-11-15T21:51:26.505Z,69.26
2022-11-15T21:53:55.747Z,69.35
2022-11-15T21:56:23.724Z,69.33
2022-11-15T21:58:52.172Z,69.66
2022-11-15T22:01:39.244Z,69.32
2022-11-15T22:04:07.733Z,68.89
2022-11-15T22:06:35.768Z,68.67
2022-11-15T22:09:04.940Z,68.13
2022-11-15T22:11:33.348Z,68.90
2022-11-15T22:14:01.470Z,69.15
2022-11-15T22:16:29.113Z,69.28
2022-11-15T22:18:57.199Z,69.65
2022-11-15T22:21:24.635Z,68.35
2022-11-15T22:23:52.134Z,68.96
2022-11-15T22:26:23.495Z,69.53
2022-11-15T22:28:51.834Z,70.00
2022-11-15T22:31:20.923Z,69.90
2022-11-15T22:33:49.133Z,69.19
2022-11-15T22:36:16.722Z,69.63
2022-11-15T22:38:44.756Z,69.21
2022-11-15T22:41:12.623Z,68.67
2022-11-15T22:43:40.262Z,69.16
2022-11-15T22:46:08.587Z,69.83
2022-11-15T22:48:40.533Z,70.08
2022-11-15T22:51:08.464Z,70.45
2022-11-15T22:53:36.429Z,70.38
2022-11-15T22:56:05.708Z,70.18
2022-11-15T22:58:35.278Z,70.79
2022-11-15T23:01:05.006Z,70.32
2022-11-15T23:03:33.789Z,68.57
2022-11-15T23:06:05.930Z,69.11
2022-11-15T23:08:33.878Z,69.67
2022-11-15T23:11:21.154Z,69.85
2022-11-15T23:13:52.594Z,70.29
2022-11-15T23:16:24.182Z,70.85
2022-11-15T23:18:57.704Z,71.45
2022-11-15T23:21:57.790Z,71.65
2022-11-15T23:24:26.431Z,70.34
2022-11-15T23:27:04.861Z,71.07
2022-11-15T23:29:54.465Z,71.79
2022-11-15T23:32:41.505Z,71.55
2022-11-15T23:35:09.947Z,71.60
2022-11-15T23:37:37.471Z,72.40
2022-11-15T23:40:05.763Z,72.09
2022-11-15T23:42:33.609Z,72.68
2022-11-15T23:45:01.242Z,71.53
2022-11-15T23:47:28.705Z,71.67
2022-11-15T23:49:56.523Z,71.59
2022-11-15T23:52:25.384Z,70.33
2022-11-15T23:54:55.074Z,70.54
2022-11-15T23:57:23.407Z,70.42
2022-11-15T23:59:50.885Z,70.73
